Time;durP1;ratioP1;P1;durP2;ratioP2;P2;SDS_P1;SDS_P2;PMS_P1;PMS_P2;Temp;Humidity;BMP_temperature;BMP_pressure;BME280_temperature;BME280_humidity;BME280_pressure;Samples;Min_cycle;Max_cycle;Signal;HPM_P1;HPM_P2
2023/08/09 00:01:07;;;;;;;3.33;0.88;;;17.20;99.90;;;;;;4039655;29;20551;-89
2023/08/09 00:03:07;;;;;;;4.47;1.08;;;17.10;99.90;;;;;;4024982;29;20194;-89
2023/08/09 00:05:08;;;;;;;2.25;1.00;;;17.10;99.90;;;;;;4039938;29;20189;-88
2023/08/09 00:07:09;;;;;;;2.72;0.90;;;17.00;99.90;;;;;;4040257;29;20280;-88
2023/08/09 00:09:10;;;;;;;1.45;1.00;;;16.90;99.90;;;;;;4024764;29;20182;-88
2023/08/09 00:11:11;;;;;;;2.55;1.30;;;17.10;99.90;;;;;;4024701;29;20268;-89
2023/08/09 00:13:12;;;;;;;2.13;0.90;;;17.30;99.90;;;;;;4024458;29;20221;-88
2023/08/09 00:15:13;;;;;;;3.45;1.10;;;17.30;99.90;;;;;;4024752;29;20186;-88
2023/08/09 00:17:14;;;;;;;1.40;0.90;;;17.30;99.90;;;;;;4039947;29;20178;-88
2023/08/09 00:19:15;;;;;;;3.35;1.35;;;17.40;99.90;;;;;;4024246;29;20565;-88
2023/08/09 00:21:16;;;;;;;1.67;0.90;;;17.40;99.90;;;;;;4039750;29;20170;-88
2023/08/09 00:23:16;;;;;;;1.95;1.15;;;17.40;99.90;;;;;;4024293;29;20217;-89
2023/08/09 00:25:18;;;;;;;3.35;0.98;;;17.30;99.90;;;;;;4024347;29;20556;-89
2023/08/09 00:27:19;;;;;;;3.03;1.08;;;17.30;99.90;;;;;;4024446;29;20190;-88
2023/08/09 00:29:20;;;;;;;2.10;1.23;;;17.00;99.90;;;;;;4024168;29;20545;-90
2023/08/09 00:31:20;;;;;;;2.63;0.95;;;16.90;99.90;;;;;;4056182;29;20195;-88
2023/08/09 00:33:21;;;;;;;5.78;1.33;;;17.00;99.90;;;;;;4024195;29;20719;-89
2023/08/09 00:35:22;;;;;;;1.90;1.13;;;17.10;99.90;;;;;;4024413;29;20186;-89
2023/08/09 00:37:23;;;;;;;2.88;1.13;;;17.20;99.90;;;;;;4024394;29;20186;-89
2023/08/09 00:39:25;;;;;;;3.20;1.20;;;17.30;99.90;;;;;;4024278;29;20206;-88
2023/08/09 00:41:26;;;;;;;6.57;1.23;;;17.40;99.90;;;;;;4024291;29;20189;-89
2023/08/09 00:43:27;;;;;;;2.38;1.00;;;17.40;99.90;;;;;;4039711;29;20181;-89
2023/08/09 00:45:28;;;;;;;2.47;1.17;;;17.30;99.90;;;;;;4024149;29;20192;-88
2023/08/09 00:47:32;;;;;;;2.47;1.05;;;17.30;99.90;;;;;;4039579;29;20190;-89
2023/08/09 00:49:33;;;;;;;3.28;1.20;;;17.40;99.90;;;;;;4039844;29;20208;-87
2023/08/09 00:51:34;;;;;;;3.00;0.90;;;17.40;99.90;;;;;;4039447;29;20215;-89
2023/08/09 00:53:35;;;;;;;3.92;0.93;;;17.50;99.90;;;;;;4024048;29;20217;-88
2023/08/09 00:55:36;;;;;;;3.28;0.93;;;17.60;99.90;;;;;;4039283;29;20689;-89
2023/08/09 00:57:37;;;;;;;1.63;1.08;;;17.40;99.90;;;;;;4023194;29;20334;-89
2023/08/09 00:59:37;;;;;;;4.60;1.33;;;17.40;99.90;;;;;;4024226;29;20695;-89
2023/08/09 01:01:39;;;;;;;2.70;1.15;;;17.30;99.90;;;;;;4024003;29;20182;-89
2023/08/09 01:03:40;;;;;;;2.55;1.00;;;17.40;99.90;;;;;;4039634;29;20185;-89
2023/08/09 01:06:05;;;;;;;2.80;1.08;;;17.40;99.90;;;;;;4024072;29;20274;-89
2023/08/09 01:08:24;;;;;;;1.45;0.90;;;17.30;99.90;;;;;;4039642;29;20659;-89
2023/08/09 01:10:46;;;;;;;1.67;1.02;;;17.30;99.90;;;;;;4023847;29;20321;-89
2023/08/09 01:12:57;;;;;;;1.70;1.20;;;17.40;99.90;;;;;;4038953;29;20324;-88
2023/08/09 01:15:00;;;;;;;2.38;1.60;;;17.30;99.90;;;;;;4038969;29;20181;-89
2023/08/09 01:17:01;;;;;;;5.88;1.67;;;17.30;99.90;;;;;;4038827;29;20174;-89
2023/08/09 01:19:10;;;;;;;2.55;1.13;;;17.30;99.90;;;;;;4023509;29;20182;-89
2023/08/09 01:21:11;;;;;;;3.13;1.20;;;17.50;99.90;;;;;;4039127;29;20181;-89
2023/08/09 01:23:17;;;;;;;4.28;1.50;;;17.40;99.90;;;;;;4023644;29;20186;-89
2023/08/09 01:25:18;;;;;;;4.32;1.13;;;17.40;99.90;;;;;;4038493;29;20186;-89
2023/08/09 01:27:18;;;;;;;2.22;1.20;;;17.40;99.90;;;;;;4023351;29;20179;-89
2023/08/09 01:29:19;;;;;;;3.47;1.50;;;17.40;99.90;;;;;;4038755;29;20213;-89
2023/08/09 01:31:20;;;;;;;2.63;1.10;;;17.40;99.90;;;;;;4023264;29;20170;-89
2023/08/09 01:33:21;;;;;;;2.65;1.38;;;17.50;99.90;;;;;;4023628;29;20329;-89
2023/08/09 01:35:24;;;;;;;3.15;1.48;;;17.40;99.90;;;;;;4023594;29;20585;-89
2023/08/09 01:37:54;;;;;;;1.80;1.17;;;17.40;99.90;;;;;;4023290;29;20551;-89
2023/08/09 01:39:59;;;;;;;2.00;1.45;;;17.40;99.90;;;;;;4038380;29;20213;-89
2023/08/09 01:42:00;;;;;;;2.50;1.40;;;17.50;99.90;;;;;;4023401;29;20556;-89
2023/08/09 01:44:04;;;;;;;3.13;1.33;;;17.50;99.90;;;;;;4038661;29;20185;-88
2023/08/09 01:46:05;;;;;;;3.10;1.38;;;17.40;99.90;;;;;;4023281;29;20178;-89
2023/08/09 01:48:07;;;;;;;3.28;1.60;;;17.30;99.90;;;;;;4038677;29;20859;-88
2023/08/09 01:50:23;;;;;;;2.60;1.48;;;17.10;99.90;;;;;;4023030;29;20202;-88
2023/08/09 01:52:24;;;;;;;2.28;1.50;;;17.10;99.90;;;;;;4038688;29;20193;-88
2023/08/09 01:54:25;;;;;;;3.45;1.90;;;17.10;99.90;;;;;;4054743;29;20273;-89
2023/08/09 01:56:25;;;;;;;1.65;1.50;;;17.10;99.90;;;;;;4038456;29;20214;-88
2023/08/09 01:58:26;;;;;;;2.72;1.58;;;17.10;99.90;;;;;;4022920;29;20193;-89
2023/08/09 02:00:27;;;;;;;2.72;1.50;;;17.30;99.90;;;;;;4038554;29;20296;-89
2023/08/09 02:02:28;;;;;;;5.15;1.60;;;17.20;99.90;;;;;;4054816;29;20188;-88
2023/08/09 02:04:30;;;;;;;2.40;1.50;;;17.20;99.90;;;;;;4038252;29;20205;-89
2023/08/09 02:06:34;;;;;;;4.75;1.48;;;17.10;99.90;;;;;;4038245;29;20226;-89
2023/08/09 02:08:35;;;;;;;3.78;1.45;;;17.20;99.90;;;;;;4038218;29;20563;-87
2023/08/09 02:10:36;;;;;;;2.00;1.15;;;17.30;99.90;;;;;;4038076;29;20210;-89
2023/08/09 02:12:38;;;;;;;4.15;1.40;;;17.20;99.90;;;;;;4037733;29;20213;-89
2023/08/09 02:14:40;;;;;;;3.72;1.70;;;17.30;99.90;;;;;;4022599;29;20198;-90
2023/08/09 02:16:41;;;;;;;2.70;1.90;;;17.40;99.90;;;;;;4038124;29;20718;-88
2023/08/09 02:18:43;;;;;;;2.33;1.40;;;17.30;99.90;;;;;;4037802;29;20225;-88
2023/08/09 02:20:44;;;;;;;3.30;1.60;;;17.20;99.90;;;;;;4022629;29;20613;-88
2023/08/09 02:22:45;;;;;;;4.88;1.42;;;17.10;99.90;;;;;;4037845;29;20181;-87
2023/08/09 02:24:46;;;;;;;1.67;1.40;;;17.20;99.90;;;;;;4022447;29;20644;-89
2023/08/09 02:26:47;;;;;;;5.22;1.80;;;17.30;99.90;;;;;;4054548;29;20185;-89
2023/08/09 02:28:51;;;;;;;2.58;1.42;;;17.50;99.90;;;;;;4022339;29;20187;-89
2023/08/09 02:30:53;;;;;;;4.45;1.38;;;17.50;99.90;;;;;;4037702;29;20278;-88
2023/08/09 02:32:54;;;;;;;2.78;1.95;;;17.50;99.90;;;;;;4022367;29;20711;-88
2023/08/09 02:34:57;;;;;;;2.42;1.45;;;17.40;99.90;;;;;;4023048;29;20238;-89
2023/08/09 02:36:59;;;;;;;3.90;1.52;;;17.50;99.90;;;;;;4037869;29;20212;-89
2023/08/09 02:39:00;;;;;;;4.15;1.75;;;17.40;99.90;;;;;;4037895;29;20619;-88
2023/08/09 02:41:01;;;;;;;2.50;1.73;;;17.30;99.90;;;;;;4022089;29;20241;-89
2023/08/09 02:43:03;;;;;;;4.60;1.80;;;17.40;99.90;;;;;;4054267;29;20680;-88
2023/08/09 02:45:05;;;;;;;3.05;1.80;;;17.50;99.90;;;;;;4053967;29;20189;-89
2023/08/09 02:47:08;;;;;;;3.10;1.63;;;17.50;99.90;;;;;;4054168;29;20242;-89
2023/08/09 02:49:08;;;;;;;2.13;1.63;;;17.50;99.90;;;;;;4022754;29;20205;-89
2023/08/09 02:51:10;;;;;;;3.05;1.80;;;17.60;99.90;;;;;;4022448;29;20734;-89
2023/08/09 02:53:11;;;;;;;2.20;1.48;;;17.70;99.90;;;;;;4022568;29;20226;-89
2023/08/09 02:55:13;;;;;;;3.08;1.40;;;17.90;99.90;;;;;;4022481;29;20174;-89
2023/08/09 02:57:14;;;;;;;2.25;1.58;;;18.00;99.90;;;;;;4022472;29;20194;-89
2023/08/09 02:59:15;;;;;;;2.45;1.63;;;18.00;99.90;;;;;;4022369;29;20242;-90
2023/08/09 03:01:16;;;;;;;6.03;2.13;;;17.90;99.90;;;;;;4021929;29;20194;-89
2023/08/09 03:03:16;;;;;;;3.67;2.00;;;18.00;99.90;;;;;;4022230;29;20276;-90
2023/08/09 03:05:17;;;;;;;2.47;1.58;;;18.40;99.90;;;;;;4037623;29;20186;-88
2023/08/09 03:07:18;;;;;;;1.58;1.10;;;18.90;99.90;;;;;;4022090;29;20265;-88
2023/08/09 03:09:20;;;;;;;1.52;1.10;;;18.70;99.90;;;;;;4022259;29;20200;-87
2023/08/09 03:11:23;;;;;;;1.58;1.17;;;18.20;99.90;;;;;;4037855;29;20182;-90
2023/08/09 03:13:24;;;;;;;1.73;1.27;;;17.70;99.90;;;;;;4037670;29;20232;-90
2023/08/09 03:15:25;;;;;;;2.13;1.70;;;17.40;99.90;;;;;;4037522;29;20182;-90
2023/08/09 03:17:26;;;;;;;2.30;1.50;;;17.10;99.90;;;;;;4021876;29;20190;-90
2023/08/09 03:19:26;;;;;;;1.98;1.58;;;17.10;99.90;;;;;;4037171;29;20698;-90
2023/08/09 03:21:27;;;;;;;2.38;1.75;;;17.10;99.90;;;;;;4040915;29;20658;-90
2023/08/09 03:23:28;;;;;;;2.90;2.00;;;17.00;99.90;;;;;;4027055;29;20182;-88
2023/08/09 03:25:31;;;;;;;3.20;2.20;;;16.70;99.90;;;;;;4042610;29;20192;-89
2023/08/09 03:27:32;;;;;;;2.92;2.15;;;16.60;99.90;;;;;;4027168;29;20277;-90
2023/08/09 03:29:33;;;;;;;4.50;2.25;;;16.60;99.90;;;;;;4042813;29;20322;-89
2023/08/09 03:31:34;;;;;;;2.65;2.00;;;16.60;99.90;;;;;;4026995;29;20209;-89
2023/08/09 03:33:36;;;;;;;4.32;2.42;;;16.40;99.90;;;;;;4042426;29;20224;-89
2023/08/09 03:35:37;;;;;;;2.97;2.20;;;16.40;99.90;;;;;;4027546;29;20189;-88
2023/08/09 03:37:38;;;;;;;3.22;2.28;;;16.30;99.90;;;;;;4042735;29;20197;-90
2023/08/09 03:39:38;;;;;;;5.13;2.83;;;16.40;99.90;;;;;;4027044;29;20202;-91
2023/08/09 03:41:40;;;;;;;4.53;2.22;;;16.40;99.90;;;;;;4027002;29;20190;-90
2023/08/09 03:43:42;;;;;;;4.07;2.30;;;16.40;99.90;;;;;;4027172;29;20185;-90
2023/08/09 03:45:43;;;;;;;4.43;2.65;;;16.30;99.90;;;;;;4042226;29;20249;-90
2023/08/09 03:47:44;;;;;;;4.68;3.05;;;16.10;99.90;;;;;;4042298;29;20192;-92
2023/08/09 03:49:46;;;;;;;5.15;2.95;;;16.10;99.90;;;;;;4026949;29;20275;-91
2023/08/09 03:51:47;;;;;;;4.28;2.83;;;16.10;99.90;;;;;;4026795;29;20181;-90
2023/08/09 03:53:48;;;;;;;4.72;2.80;;;16.10;99.90;;;;;;4027117;29;20234;-91
2023/08/09 03:55:48;;;;;;;4.15;2.85;;;16.30;99.90;;;;;;4042444;29;20232;-89
2023/08/09 03:57:49;;;;;;;3.97;2.60;;;16.10;99.90;;;;;;4042469;29;20196;-91
2023/08/09 03:59:50;;;;;;;4.30;2.90;;;16.10;99.90;;;;;;4027127;29;20235;-91
2023/08/09 04:01:51;;;;;;;3.80;2.60;;;16.00;99.90;;;;;;4042450;29;20221;-91
2023/08/09 04:03:52;;;;;;;6.93;2.55;;;16.00;99.90;;;;;;4027009;29;20198;-91
2023/08/09 04:05:53;;;;;;;4.45;2.88;;;16.00;99.90;;;;;;4026876;29;20204;-90
2023/08/09 04:07:53;;;;;;;4.53;2.40;;;16.10;99.90;;;;;;4042067;29;20181;-90
2023/08/09 04:09:54;;;;;;;5.68;2.80;;;16.10;99.90;;;;;;4026816;29;20234;-91
2023/08/09 04:11:55;;;;;;;3.55;2.53;;;16.10;99.90;;;;;;4042101;29;20182;-91
2023/08/09 04:13:56;;;;;;;4.70;2.65;;;16.20;99.90;;;;;;4026637;29;20309;-90
2023/08/09 04:15:57;;;;;;;3.70;2.55;;;16.20;99.90;;;;;;4026591;29;20190;-91
2023/08/09 04:17:58;;;;;;;4.75;2.20;;;16.20;99.90;;;;;;4026779;29;20656;-91
2023/08/09 04:20:00;;;;;;;3.00;2.25;;;16.20;99.90;;;;;;4026909;29;20211;-91
2023/08/09 04:22:00;;;;;;;4.32;2.70;;;16.40;99.90;;;;;;4026823;29;20684;-91
2023/08/09 04:24:01;;;;;;;3.60;2.60;;;16.40;99.90;;;;;;4042307;29;20268;-92
2023/08/09 04:26:03;;;;;;;2.95;2.33;;;16.30;99.90;;;;;;4026742;29;20194;-89
2023/08/09 04:28:04;;;;;;;2.53;2.17;;;16.30;99.90;;;;;;4026770;29;20214;-90
2023/08/09 04:30:12;;;;;;;3.42;2.17;;;16.30;99.90;;;;;;4041718;29;20284;-92
2023/08/09 04:32:13;;;;;;;3.35;2.20;;;16.30;99.90;;;;;;4025899;29;20213;-90
2023/08/09 04:34:14;;;;;;;3.88;2.47;;;16.30;99.90;;;;;;4039531;29;20234;-91
2023/08/09 04:36:18;;;;;;;4.38;2.40;;;16.20;99.90;;;;;;4024400;29;20262;-90
2023/08/09 04:38:19;;;;;;;4.85;2.90;;;16.20;99.90;;;;;;4039760;29;20188;-90
2023/08/09 04:40:20;;;;;;;3.92;2.60;;;16.30;99.90;;;;;;4024085;29;20203;-90
2023/08/09 04:42:21;;;;;;;3.78;2.55;;;16.30;99.90;;;;;;4024253;29;20647;-90
2023/08/09 04:44:22;;;;;;;3.38;2.47;;;16.20;99.90;;;;;;4024283;29;20265;-90
2023/08/09 04:46:23;;;;;;;6.15;2.40;;;16.20;99.90;;;;;;4024243;29;20195;-88
2023/08/09 04:48:26;;;;;;;3.83;2.50;;;16.20;99.90;;;;;;4039309;29;20197;-91
2023/08/09 04:50:27;;;;;;;3.78;2.50;;;16.30;99.90;;;;;;4024214;29;20664;-90
2023/08/09 04:52:28;;;;;;;3.80;2.60;;;16.30;99.90;;;;;;4039178;29;20188;-90
2023/08/09 04:54:29;;;;;;;4.47;2.78;;;16.40;99.90;;;;;;4024184;29;20193;-91
2023/08/09 04:56:31;;;;;;;5.05;2.97;;;16.30;99.90;;;;;;4024108;29;20186;-90
2023/08/09 04:58:32;;;;;;;3.95;2.75;;;16.30;99.90;;;;;;4024093;29;20186;-91
2023/08/09 05:00:33;;;;;;;5.90;3.47;;;16.30;99.90;;;;;;4024078;29;20207;-90
2023/08/09 05:02:36;;;;;;;5.30;3.28;;;16.40;99.90;;;;;;4023977;29;20258;-90
2023/08/09 05:04:37;;;;;;;6.20;3.70;;;16.40;99.90;;;;;;4023930;29;20696;-91
2023/08/09 05:06:39;;;;;;;6.25;3.90;;;16.10;99.90;;;;;;4023856;29;20185;-90
2023/08/09 05:08:40;;;;;;;6.72;3.83;;;16.00;99.90;;;;;;4024151;29;20227;-89
2023/08/09 05:10:41;;;;;;;4.40;3.25;;;16.10;99.90;;;;;;4023705;29;20321;-91
2023/08/09 05:12:42;;;;;;;6.43;3.70;;;16.20;99.90;;;;;;4023652;29;20218;-92
2023/08/09 05:14:43;;;;;;;8.48;3.60;;;16.20;99.90;;;;;;4023740;29;20277;-90
2023/08/09 05:16:43;;;;;;;6.03;3.95;;;16.20;99.90;;;;;;4038777;29;20197;-92
2023/08/09 05:18:44;;;;;;;5.38;3.50;;;16.10;99.90;;;;;;4024172;29;20273;-92
2023/08/09 05:20:45;;;;;;;5.68;3.38;;;16.10;99.90;;;;;;4038793;29;20229;-89
2023/08/09 05:22:46;;;;;;;5.20;3.50;;;16.10;99.90;;;;;;4038764;29;20233;-90
2023/08/09 05:24:47;;;;;;;4.97;3.33;;;16.20;99.90;;;;;;4023618;29;20190;-88
2023/08/09 05:26:47;;;;;;;5.40;3.45;;;16.20;99.90;;;;;;4023585;29;20265;-91
2023/08/09 05:28:48;;;;;;;5.95;3.67;;;16.20;99.90;;;;;;4023695;29;20247;-91
2023/08/09 05:30:49;;;;;;;8.00;3.67;;;16.20;99.90;;;;;;4023441;29;20241;-90
2023/08/09 05:32:50;;;;;;;7.38;5.07;;;16.30;99.90;;;;;;4023571;29;20217;-91
2023/08/09 05:34:51;;;;;;;7.97;4.63;;;16.30;99.90;;;;;;4023366;29;20560;-91
2023/08/09 05:36:52;;;;;;;9.35;5.28;;;16.30;99.90;;;;;;4023565;29;20197;-91
2023/08/09 05:38:53;;;;;;;9.93;5.13;;;16.40;99.90;;;;;;4023329;29;20270;-91
2023/08/09 05:40:54;;;;;;;9.13;4.75;;;16.50;99.90;;;;;;4023164;29;20206;-89
2023/08/09 05:42:55;;;;;;;8.70;4.95;;;16.50;99.90;;;;;;4023144;29;20277;-92
2023/08/09 05:44:55;;;;;;;5.68;3.70;;;16.60;99.90;;;;;;4038211;29;20199;-91
2023/08/09 05:46:56;;;;;;;7.85;4.63;;;16.70;99.90;;;;;;4023176;29;20239;-90
2023/08/09 05:48:57;;;;;;;7.90;4.53;;;16.70;99.90;;;;;;4038478;29;20276;-91
2023/08/09 05:50:58;;;;;;;7.05;4.47;;;16.70;99.90;;;;;;4023069;29;20210;-88
2023/08/09 05:52:59;;;;;;;7.97;4.70;;;16.80;99.90;;;;;;4038308;29;20229;-92
2023/08/09 05:54:59;;;;;;;7.90;4.43;;;16.80;99.90;;;;;;4023519;29;20258;-91
2023/08/09 05:57:01;;;;;;;7.28;4.47;;;16.80;99.90;;;;;;4038782;29;20200;-91
2023/08/09 05:59:01;;;;;;;10.27;4.82;;;16.90;99.90;;;;;;4023198;29;20182;-89
2023/08/09 06:01:05;;;;;;;9.70;4.88;;;16.90;99.90;;;;;;4038393;29;20193;-92
2023/08/09 06:03:06;;;;;;;8.60;4.78;;;16.90;99.90;;;;;;4023413;29;20182;-90
2023/08/09 06:05:08;;;;;;;9.38;4.43;;;17.00;99.90;;;;;;4023027;29;20190;-92
2023/08/09 06:07:09;;;;;;;7.38;4.57;;;17.00;99.90;;;;;;4038354;29;20724;-93
2023/08/09 06:09:10;;;;;;;7.22;4.32;;;17.10;99.90;;;;;;4038416;29;20213;-92
2023/08/09 06:11:11;;;;;;;9.13;5.13;;;17.30;99.90;;;;;;4022970;29;20193;-91
2023/08/09 06:13:11;;;;;;;8.48;5.10;;;17.40;99.90;;;;;;4022794;29;20731;-91
2023/08/09 06:15:12;;;;;;;9.48;5.15;;;17.60;99.90;;;;;;4022826;29;20292;-90
2023/08/09 06:17:13;;;;;;;9.95;5.50;;;17.70;99.90;;;;;;4037836;29;20193;-92
2023/08/09 06:19:14;;;;;;;10.35;5.18;;;17.70;99.90;;;;;;4022578;29;20262;-91
2023/08/09 06:21:15;;;;;;;10.23;4.82;;;17.90;99.90;;;;;;4022788;29;20663;-91
2023/08/09 06:23:16;;;;;;;9.07;5.38;;;18.20;99.90;;;;;;4022725;29;20177;-92
2023/08/09 06:25:16;;;;;;;9.32;5.38;;;18.40;99.90;;;;;;4038064;29;20189;-92
2023/08/09 06:27:17;;;;;;;9.18;5.03;;;18.50;99.90;;;;;;4022594;29;20178;-91
2023/08/09 06:29:18;;;;;;;9.10;5.00;;;18.60;99.90;;;;;;4022753;29;20206;-91
2023/08/09 06:31:19;;;;;;;6.97;4.28;;;18.70;99.90;;;;;;4022610;29;20335;-91
2023/08/09 06:33:20;;;;;;;7.45;5.10;;;19.00;99.90;;;;;;4038072;29;20702;-90
2023/08/09 06:35:20;;;;;;;7.00;4.43;;;19.20;99.90;;;;;;4022669;29;20186;-92
2023/08/09 06:37:21;;;;;;;5.50;3.70;;;19.30;99.90;;;;;;4022572;29;20221;-90
2023/08/09 06:39:22;;;;;;;7.25;4.50;;;19.30;99.90;;;;;;4022609;29;20217;-89
2023/08/09 06:41:23;;;;;;;9.82;5.15;;;19.40;99.90;;;;;;4037867;29;20193;-90
2023/08/09 06:43:23;;;;;;;8.52;5.05;;;19.70;99.90;;;;;;4022298;29;20272;-89
2023/08/09 06:45:24;;;;;;;11.05;5.88;;;19.70;99.90;;;;;;4022599;29;20202;-90
2023/08/09 06:47:25;;;;;;;12.00;5.28;;;19.80;99.90;;;;;;4022439;29;20178;-92
2023/08/09 06:49:26;;;;;;;10.32;5.28;;;19.80;99.90;;;;;;4022406;29;20240;-89
2023/08/09 06:51:26;;;;;;;10.00;5.85;;;19.60;99.90;;;;;;4022421;29;20190;-88
2023/08/09 06:53:27;;;;;;;10.40;5.82;;;19.60;99.90;;;;;;4022451;29;20218;-91
2023/08/09 06:55:28;;;;;;;13.32;7.05;;;19.60;99.90;;;;;;4037180;29;20713;-90
2023/08/09 06:57:29;;;;;;;9.52;5.80;;;19.50;99.90;;;;;;4022476;29;20272;-90
2023/08/09 06:59:30;;;;;;;10.02;5.97;;;19.40;99.90;;;;;;4022612;29;20362;-89
2023/08/09 07:01:31;;;;;;;11.27;5.40;;;19.40;99.90;;;;;;4022048;29;20192;-89
2023/08/09 07:03:32;;;;;;;10.52;5.97;;;19.30;99.90;;;;;;4022410;29;20263;-91
2023/08/09 07:05:33;;;;;;;9.68;5.93;;;19.30;99.90;;;;;;4022366;29;20182;-91
2023/08/09 07:07:34;;;;;;;9.25;5.25;;;19.20;99.90;;;;;;4038069;29;20636;-91
2023/08/09 07:09:34;;;;;;;6.85;4.22;;;19.20;99.90;;;;;;4022208;29;20202;-91
2023/08/09 07:11:35;;;;;;;6.97;4.43;;;18.80;99.90;;;;;;4022356;29;20182;-90
2023/08/09 07:13:36;;;;;;;7.50;4.28;;;19.00;99.90;;;;;;4022101;29;20232;-91
2023/08/09 07:15:37;;;;;;;9.57;4.68;;;18.90;99.90;;;;;;4037204;29;20181;-91
2023/08/09 07:17:38;;;;;;;7.38;4.32;;;18.80;99.90;;;;;;4022190;29;20632;-92
2023/08/09 07:19:39;;;;;;;7.70;4.53;;;18.90;99.90;;;;;;4022020;29;20210;-89
2023/08/09 07:21:40;;;;;;;7.57;4.25;;;19.00;99.90;;;;;;4022210;29;20229;-91
2023/08/09 07:23:40;;;;;;;8.13;4.60;;;19.70;99.90;;;;;;4022123;29;20737;-91
2023/08/09 07:25:41;;;;;;;6.28;3.63;;;20.30;99.90;;;;;;4022096;29;20193;-92
2023/08/09 07:27:48;;;;;;;7.53;3.97;;;20.70;99.90;;;;;;4021931;29;20270;-89
2023/08/09 07:29:49;;;;;;;6.03;3.28;;;20.20;99.90;;;;;;4037174;29;20687;-89
2023/08/09 07:31:50;;;;;;;5.90;3.08;;;20.20;99.90;;;;;;4037419;29;20174;-91
2023/08/09 07:33:51;;;;;;;5.82;3.55;;;20.30;99.90;;;;;;4021862;29;20235;-88
2023/08/09 07:35:52;;;;;;;4.57;3.22;;;20.80;99.90;;;;;;4022117;29;20251;-93
2023/08/09 07:37:52;;;;;;;5.32;3.58;;;22.00;99.90;;;;;;4037314;29;20189;-90
2023/08/09 07:39:53;;;;;;;3.60;2.50;;;22.90;99.90;;;;;;4021865;29;20201;-91
2023/08/09 07:41:54;;;;;;;4.03;2.75;;;23.20;99.90;;;;;;4021988;29;20190;-94
2023/08/09 07:43:55;;;;;;;3.85;2.60;;;23.90;99.90;;;;;;4022183;29;20186;-94
2023/08/09 07:45:56;;;;;;;3.42;2.30;;;24.40;99.90;;;;;;4022040;29;20183;-90
2023/08/09 07:47:57;;;;;;;4.15;2.70;;;23.70;99.90;;;;;;4022003;29;20232;-91
2023/08/09 07:49:59;;;;;;;4.53;2.20;;;23.50;99.90;;;;;;4037551;29;20221;-92
2023/08/09 07:52:00;;;;;;;4.05;2.15;;;23.20;99.90;;;;;;4021929;29;20243;-89
2023/08/09 07:54:01;;;;;;;3.60;2.38;;;23.20;99.90;;;;;;4021767;29;20222;-90
2023/08/09 07:56:02;;;;;;;4.82;2.70;;;23.80;99.90;;;;;;4021743;29;20194;-90
2023/08/09 07:58:04;;;;;;;3.38;2.38;;;24.50;99.90;;;;;;4021765;29;20182;-91
2023/08/09 08:00:17;;;;;;;3.45;2.05;;;25.70;99.90;;;;;;4021788;29;20203;-92
2023/08/09 08:02:18;;;;;;;4.32;2.17;;;26.90;99.90;;;;;;4037233;29;20190;-91
2023/08/09 08:04:19;;;;;;;2.22;1.80;;;27.60;99.90;;;;;;4022252;29;20225;-89
2023/08/09 08:06:20;;;;;;;4.15;2.15;;;28.20;99.90;;;;;;4021655;29;20284;-92
2023/08/09 08:08:21;;;;;;;3.53;2.17;;;27.60;99.90;;;;;;4024372;29;20214;-91
2023/08/09 08:10:22;;;;;;;3.10;2.28;;;27.50;99.90;;;;;;4040286;29;20703;-92
2023/08/09 08:12:23;;;;;;;2.60;1.95;;;27.50;99.90;;;;;;4024835;29;20694;-90
2023/08/09 08:14:24;;;;;;;2.58;1.92;;;26.90;99.90;;;;;;4024814;29;20230;-90
2023/08/09 08:16:25;;;;;;;2.53;1.55;;;26.30;99.90;;;;;;4040043;29;20182;-90
2023/08/09 08:18:26;;;;;;;3.75;1.70;;;26.00;99.90;;;;;;4024628;29;20197;-91
2023/08/09 08:20:27;;;;;;;1.80;1.30;;;25.50;99.90;;;;;;4024380;29;20254;-91
2023/08/09 08:22:28;;;;;;;3.75;1.70;;;24.60;99.90;;;;;;4039754;29;20201;-91
2023/08/09 08:24:29;;;;;;;2.08;1.52;;;24.40;99.90;;;;;;4024189;29;20262;-92
2023/08/09 08:26:33;;;;;;;2.63;1.58;;;24.00;99.90;;;;;;4039750;29;20197;-90
2023/08/09 08:28:33;;;;;;;2.03;1.48;;;23.90;99.90;;;;;;4024520;29;20233;-91
2023/08/09 08:30:34;;;;;;;2.10;0.95;;;25.30;99.90;;;;;;4024599;29;20214;-91
2023/08/09 08:32:36;;;;;;;1.90;1.10;;;26.40;99.90;;;;;;4024514;29;20178;-91
2023/08/09 08:34:37;;;;;;;1.83;1.30;;;25.50;99.90;;;;;;4039856;29;20198;-89
2023/08/09 08:36:38;;;;;;;2.85;1.42;;;25.80;99.90;;;;;;4039693;29;20270;-91
2023/08/09 08:38:39;;;;;;;1.40;0.88;;;26.50;99.90;;;;;;4024337;29;20222;-90
2023/08/09 08:40:39;;;;;;;1.05;0.90;;;27.40;99.90;;;;;;4024163;29;20250;-91
2023/08/09 08:42:41;;;;;;;1.85;1.05;;;28.20;99.90;;;;;;4039836;29;20216;-91
2023/08/09 08:44:42;;;;;;;1.27;0.88;;;27.60;99.90;;;;;;4024069;29;20624;-91
2023/08/09 08:46:43;;;;;;;1.33;0.90;;;28.30;99.90;;;;;;4039286;29;20189;-91
2023/08/09 08:48:48;;;;;;;1.65;1.10;;;28.40;99.90;;;;;;4024256;29;20193;-93
2023/08/09 08:50:50;;;;;;;1.25;1.15;;;28.90;99.90;;;;;;4039456;29;20643;-91
2023/08/09 08:52:52;;;;;;;2.08;1.30;;;29.50;99.90;;;;;;4039360;29;20244;-92
2023/08/09 08:54:53;;;;;;;1.88;1.10;;;29.20;99.90;;;;;;4023759;29;20190;-93
2023/08/09 08:56:54;;;;;;;1.48;1.17;;;28.90;99.90;;;;;;4024045;29;20198;-90
2023/08/09 08:58:55;;;;;;;1.90;1.02;;;27.70;99.90;;;;;;4024023;29;20191;-92
2023/08/09 09:00:56;;;;;;;2.33;1.10;;;27.10;99.90;;;;;;4039283;29;20217;-89
2023/08/09 09:02:59;;;;;;;1.92;1.17;;;25.90;99.90;;;;;;4024183;29;20194;-91
2023/08/09 09:04:59;;;;;;;2.03;0.90;;;25.30;99.90;;;;;;4023831;29;20190;-91
2023/08/09 09:07:00;;;;;;;2.13;1.13;;;25.30;99.90;;;;;;4039047;29;20193;-92
2023/08/09 09:09:13;;;;;;;1.65;0.95;;;25.70;99.90;;;;;;4023722;29;20194;-92
2023/08/09 09:11:18;;;;;;;1.67;1.20;;;26.20;99.90;;;;;;4023737;29;20571;-92
2023/08/09 09:13:26;;;;;;;1.13;0.80;;;25.70;99.90;;;;;;4039063;29;20832;-92
2023/08/09 09:15:27;;;;;;;1.85;0.80;;;25.60;99.90;;;;;;4024118;29;20186;-91
2023/08/09 09:17:28;;;;;;;3.03;1.00;;;25.50;99.90;;;;;;4023619;29;20190;-91
2023/08/09 09:19:34;;;;;;;1.73;0.98;;;25.30;99.90;;;;;;4038477;29;20576;-91
2023/08/09 09:21:36;;;;;;;1.98;0.75;;;25.00;99.90;;;;;;4023760;29;20192;-90
2023/08/09 09:23:38;;;;;;;1.30;0.88;;;24.20;99.90;;;;;;4039200;29;20281;-92
2023/08/09 09:25:40;;;;;;;0.90;0.68;;;23.30;99.90;;;;;;4038869;29;20192;-92
2023/08/09 09:27:40;;;;;;;2.42;1.35;;;23.10;99.90;;;;;;4023365;29;20182;-88
2023/08/09 09:29:41;;;;;;;2.13;1.10;;;23.10;99.90;;;;;;4023990;29;20229;-89
2023/08/09 09:31:42;;;;;;;1.70;1.00;;;23.60;99.90;;;;;;4023733;29;20640;-90
2023/08/09 09:33:51;;;;;;;0.80;0.70;;;24.70;99.90;;;;;;4023756;29;20222;-90
2023/08/09 09:35:53;;;;;;;1.20;0.80;;;25.80;99.90;;;;;;4023520;29;20182;-92
2023/08/09 09:38:02;;;;;;;1.27;0.77;;;24.90;99.90;;;;;;4038584;29;20795;-89
2023/08/09 09:40:03;;;;;;;1.98;0.80;;;23.90;99.90;;;;;;4023565;29;20209;-90
2023/08/09 09:42:03;;;;;;;2.38;0.82;;;23.90;99.90;;;;;;4038737;29;20186;-90
2023/08/09 09:44:04;;;;;;;1.70;0.80;;;23.70;99.90;;;;;;4038890;29;20173;-91
2023/08/09 09:46:17;;;;;;;1.40;0.60;;;24.20;99.90;;;;;;4023281;29;20198;-90
2023/08/09 09:48:18;;;;;;;2.25;1.20;;;23.50;99.90;;;;;;4038625;29;20232;-91
2023/08/09 09:50:22;;;;;;;1.05;0.95;;;23.90;99.90;;;;;;4038616;29;20209;-92
2023/08/09 09:52:25;;;;;;;1.38;0.80;;;24.50;99.90;;;;;;4023224;29;20272;-89
2023/08/09 09:54:26;;;;;;;1.30;0.68;;;24.90;99.90;;;;;;4038579;29;20221;-89
2023/08/09 09:56:27;;;;;;;1.25;0.68;;;25.70;99.90;;;;;;4038661;29;20189;-90
2023/08/09 09:58:28;;;;;;;3.55;1.10;;;25.80;99.90;;;;;;4038569;29;20321;-91
2023/08/09 10:00:31;;;;;;;2.10;1.00;;;26.30;99.90;;;;;;4023190;29;20214;-92
2023/08/09 10:02:40;;;;;;;1.25;0.90;;;26.00;99.90;;;;;;4022933;29;20212;-89
2023/08/09 10:04:44;;;;;;;1.30;0.90;;;25.90;99.90;;;;;;4038545;29;20264;-90
2023/08/09 10:06:47;;;;;;;1.05;0.70;;;26.30;99.90;;;;;;4023418;29;20220;-91
2023/08/09 10:08:52;;;;;;;1.73;0.88;;;26.30;99.90;;;;;;4022978;29;20671;-90
2023/08/09 10:10:54;;;;;;;0.95;0.70;;;25.30;99.90;;;;;;4038554;29;20202;-89
2023/08/09 10:12:55;;;;;;;1.88;0.90;;;24.10;99.90;;;;;;4022711;29;20233;-88
2023/08/09 10:14:58;;;;;;;1.52;0.85;;;24.10;99.90;;;;;;4038305;29;20205;-91
2023/08/09 10:17:01;;;;;;;3.72;0.90;;;24.60;99.90;;;;;;4038170;29;20198;-91
2023/08/09 10:19:12;;;;;;;3.13;0.93;;;24.00;99.90;;;;;;4022767;29;20186;-90
2023/08/09 10:21:16;;;;;;;1.10;0.77;;;24.20;99.90;;;;;;4038164;29;20306;-89
2023/08/09 10:23:24;;;;;;;2.22;0.98;;;24.50;99.90;;;;;;4022502;29;20567;-88
2023/08/09 10:25:43;;;;;;;1.00;0.80;;;24.00;99.90;;;;;;4038338;29;20196;-91
2023/08/09 10:27:50;;;;;;;2.20;0.80;;;23.80;99.90;;;;;;4022875;29;20191;-89
2023/08/09 10:29:57;;;;;;;2.33;0.88;;;23.50;99.90;;;;;;4037575;29;20570;-89
2023/08/09 10:32:00;;;;;;;2.97;1.10;;;23.30;99.90;;;;;;4022467;29;20201;-93
2023/08/09 10:34:06;;;;;;;2.33;1.10;;;23.20;99.90;;;;;;4037915;29;20278;-90